DIRECCIÓN GENERAL DE AERONÁUTICA CIVIL
DIRECCIÓN METEOROLÓGICA DE CHILE
INFORMACIÓN METAR Y TAF

FIR PUERTO MONTT

Estación: SCQP
SPECI SCQP 061228Z VRB02KT 1100 0900 R01/1200N FG OVC002 13/13 Q1013=

TAF SCQP 061046Z 0612/0712 VRB02KT 0800 FG BKN006 TX27/0619Z TN08/ 0710Z BECMG 0613/0615 24008KT 9999 NSW BKN015 BECMG 0616/0618 SCT030 BECMG 0700/0702 BKN030 BECMG 0706/0708 35007KT BKN020 BKN060=

Estación: SCVD
METAR SCVD 061200Z VRB02KT 9999 OVC008 15/14 Q1013=

TAF SCVD 061050Z 0612/0624 VRB02KT 9999 BKN010 BKN020 TX26/0619Z TN18 /0624Z BECMG 0614/0616 34010KT SCT030 BECMG 0622/0624 BKN030=

Estación: SCJO
METAR SCJO 061200Z 00000KT 0100 FG OVC002 12/12 Q1013=

TAF SCJO 061051Z 0612/0624 VRB02KT 6000 BKN010 BKN020 TX24/0619Z TN18/0624Z BECMG 0614/0616 34012KT 9999 NSW BKN030 BKN060 BECMG 0616/ 0618 5000 -SHRA BKN015 BKN030 =

Estación: SCTE
SPECI SCTE 061217Z 35005KT 2000 VCFG FU BKN040 13/13 Q1012 NOSIG=

TAF SCTE 061048Z 0612/0712 VRB02KT 4000 VCFG HU BKN006 TX21/0619Z TN12/0710Z BECMG 0614/0615 35012KT 7000 HU BKN020 BECMG 0615/0617 6000 -SHRA BKN010 OVC030 BECMG 0706/0708 35017KT=

Estación: SCPQ
METAR SCPQ 061200Z 01008KT 9999 -RA FEW003 OVC008 13/12 Q1012=

TAF SCPQ 061053Z 0612/0624 01007KT 9999 BKN020 TX18/0619Z TN15/0624Z BECMG 0614/0616 35018KT 4000 -RA BKN010 OVC020=

Estación: SCON
METAR SCON 061200Z VRB01KT 6000 -DZ OVC008 13/13 Q1011=

TAF SCON 061055Z 0612/0624 01010KT 4000 -RA BKN010 OVC020 TX18/0619Z TN15/0624Z BECMG 0614/0616 35015G20KT=

Estación: SCTN
METAR SCTN 061200Z VRB02KT 9999 SCT020 BKN030 OVC050 14/13 Q1011=

TAF SCTN 061052Z 0612/0624 03005KT 9999 OVC020 TX19/0619Z TN16/0624Z BECMG 0614/0616 35015KT 4000 -RA BKN010 OVC020=

Estación: SCFT
METAR SCFT 061200Z AUTO 00000KT //// SKC 10/07 Q1013=

NIL=

Estación: SCAP
METAR SCAP 061200Z VRB01KT 9999 FEW012 SCT025 BKN090 09/06 Q1018=

NIL=

Estación: SCMK
METAR SCMK 061200Z 03004KT 9999 OVC003 12/12 Q1010=

TAF SCMK 061056Z 0612/0624 01005KT 3000 BR BKN005 TX17/0619Z TN11/ 0624Z BECMG 0614/0616 35015G25KT 4000 -RA BKN007 OVC018=

Estación: SCAS
METAR SCAS 061200Z 00000KT 9999 FEW023 BKN033 11/10 Q1011=

NIL=

Estación: SCCY
METAR SCCY 061200Z 36002KT 9999 BKN036 09/06 Q1010=

TAF SCCY 061039Z 0612/0624 VRB02KT 9999 BKN030 TX20/0619Z TN15/0624Z BECMG 0614/0616 29015KT BECMG 0620/0622 5000 -SHRA BKN015 BKN025=

Estación: SCBA
METAR SCBA 061200Z 32009KT 9999 SCT050 08/04 Q1009=

TAF SCBA 061049Z 0612/0712 32020G35KT 9999 BKN040 BKN100 TX19/0619Z TN08/0710Z TEMPO 0620/0706 5000 -SHRA BKN020 BKN040=

Estación: SCCC
METAR SCCC 061200Z 26015KT 9999 FEW040 SCT120 13/M03 Q1008=

NIL=

Estación: SCHR
METAR SCHR 061200Z 24003KT 9999 SCT040 07/03 10005=

TAF COR SCHR 061050Z 0612/0700 27005KT 9999 SCT040 TN04/0612Z TX17/0618Z TEMPO 0613/0617 VRB03KT CAVOK=


Volver